sensor_id;sensor_type;location;lat;lon;timestamp;temperature;humidity
35603;DHT22;21725;50.836;4.368;2022-10-15T00:02:20;17.80;99.90
35603;DHT22;21725;50.836;4.368;2022-10-15T00:05:14;17.70;99.90
35603;DHT22;21725;50.836;4.368;2022-10-15T00:07:45;17.90;99.90
35603;DHT22;21725;50.836;4.368;2022-10-15T00:10:18;17.90;99.90
35603;DHT22;21725;50.836;4.368;2022-10-15T00:12:44;17.90;99.90
35603;DHT22;21725;50.836;4.368;2022-10-15T00:15:23;17.90;99.90
35603;DHT22;21725;50.836;4.368;2022-10-15T00:17:52;17.80;99.90
35603;DHT22;21725;50.836;4.368;2022-10-15T00:20:35;17.70;99.90
35603;DHT22;21725;50.836;4.368;2022-10-15T00:23:17;17.90;99.90
35603;DHT22;21725;50.836;4.368;2022-10-15T00:28:44;17.80;99.90
35603;DHT22;21725;50.836;4.368;2022-10-15T00:31:17;17.90;99.90
35603;DHT22;21725;50.836;4.368;2022-10-15T00:33:51;17.90;99.90
35603;DHT22;21725;50.836;4.368;2022-10-15T00:36:37;18.00;99.90
35603;DHT22;21725;50.836;4.368;2022-10-15T00:39:24;17.90;99.90
35603;DHT22;21725;50.836;4.368;2022-10-15T00:42:22;17.70;99.90
35603;DHT22;21725;50.836;4.368;2022-10-15T00:47:49;17.80;99.90
35603;DHT22;21725;50.836;4.368;2022-10-15T00:50:43;18.00;99.90
35603;DHT22;21725;50.836;4.368;2022-10-15T00:53:26;18.00;99.90
35603;DHT22;21725;50.836;4.368;2022-10-15T00:56:00;18.00;99.90
35603;DHT22;21725;50.836;4.368;2022-10-15T00:58:38;18.00;99.90
35603;DHT22;21725;50.836;4.368;2022-10-15T01:01:15;17.80;99.90
35603;DHT22;21725;50.836;4.368;2022-10-15T01:04:04;17.80;99.90
35603;DHT22;21725;50.836;4.368;2022-10-15T01:06:48;17.80;99.90
35603;DHT22;21725;50.836;4.368;2022-10-15T01:09:17;17.80;99.90
35603;DHT22;21725;50.836;4.368;2022-10-15T01:12:08;17.70;99.90
35603;DHT22;21725;50.836;4.368;2022-10-15T01:39:48;17.70;99.90
35603;DHT22;21725;50.836;4.368;2022-10-15T01:42:36;17.70;99.90
35603;DHT22;21725;50.836;4.368;2022-10-15T01:45:19;17.60;99.90
35603;DHT22;21725;50.836;4.368;2022-10-15T01:48:06;17.60;99.90
35603;DHT22;21725;50.836;4.368;2022-10-15T01:50:50;17.50;99.90
35603;DHT22;21725;50.836;4.368;2022-10-15T01:53:22;17.60;99.90
35603;DHT22;21725;50.836;4.368;2022-10-15T01:56:04;17.60;99.90
35603;DHT22;21725;50.836;4.368;2022-10-15T01:58:42;17.50;99.90
35603;DHT22;21725;50.836;4.368;2022-10-15T02:01:23;17.70;99.90
35603;DHT22;21725;50.836;4.368;2022-10-15T02:03:56;17.70;99.90
35603;DHT22;21725;50.836;4.368;2022-10-15T02:06:42;17.60;99.90
35603;DHT22;21725;50.836;4.368;2022-10-15T02:12:05;17.90;99.90
35603;DHT22;21725;50.836;4.368;2022-10-15T02:15:05;17.90;99.90
35603;DHT22;21725;50.836;4.368;2022-10-15T02:17:49;17.90;99.90
35603;DHT22;21725;50.836;4.368;2022-10-15T02:20:23;17.80;99.90
35603;DHT22;21725;50.836;4.368;2022-10-15T02:23:07;17.80;99.90
35603;DHT22;21725;50.836;4.368;2022-10-15T02:25:46;17.70;99.90
35603;DHT22;21725;50.836;4.368;2022-10-15T02:28:28;17.70;99.90
35603;DHT22;21725;50.836;4.368;2022-10-15T02:31:12;17.80;99.90
35603;DHT22;21725;50.836;4.368;2022-10-15T02:33:51;17.70;99.90
35603;DHT22;21725;50.836;4.368;2022-10-15T02:36:22;17.80;99.90
35603;DHT22;21725;50.836;4.368;2022-10-15T02:39:13;17.90;99.90
35603;DHT22;21725;50.836;4.368;2022-10-15T02:41:52;17.80;99.90
35603;DHT22;21725;50.836;4.368;2022-10-15T02:44:21;17.70;99.90
35603;DHT22;21725;50.836;4.368;2022-10-15T02:46:49;17.70;99.90
35603;DHT22;21725;50.836;4.368;2022-10-15T02:49:20;17.70;99.90
35603;DHT22;21725;50.836;4.368;2022-10-15T02:51:57;17.80;99.90
35603;DHT22;21725;50.836;4.368;2022-10-15T02:54:26;17.60;99.90
35603;DHT22;21725;50.836;4.368;2022-10-15T02:56:53;17.30;99.90
35603;DHT22;21725;50.836;4.368;2022-10-15T02:59:30;17.50;99.90
35603;DHT22;21725;50.836;4.368;2022-10-15T03:02:11;17.40;99.90
35603;DHT22;21725;50.836;4.368;2022-10-15T03:04:37;17.30;99.90
35603;DHT22;21725;50.836;4.368;2022-10-15T03:07:03;17.40;99.90
35603;DHT22;21725;50.836;4.368;2022-10-15T03:09:39;17.30;99.90
35603;DHT22;21725;50.836;4.368;2022-10-15T03:12:08;17.20;99.90
35603;DHT22;21725;50.836;4.368;2022-10-15T03:14:48;17.10;99.90
35603;DHT22;21725;50.836;4.368;2022-10-15T03:17:51;17.30;99.90
35603;DHT22;21725;50.836;4.368;2022-10-15T03:20:25;17.40;99.90
35603;DHT22;21725;50.836;4.368;2022-10-15T03:22:51;17.50;99.90
35603;DHT22;21725;50.836;4.368;2022-10-15T03:25:25;17.40;99.90
35603;DHT22;21725;50.836;4.368;2022-10-15T03:28:14;17.40;99.90
35603;DHT22;21725;50.836;4.368;2022-10-15T03:30:42;17.00;99.90
35603;DHT22;21725;50.836;4.368;2022-10-15T03:33:16;17.20;99.90
35603;DHT22;21725;50.836;4.368;2022-10-15T03:35:49;17.20;99.90
35603;DHT22;21725;50.836;4.368;2022-10-15T03:38:27;17.10;99.90
35603;DHT22;21725;50.836;4.368;2022-10-15T03:40:55;17.00;99.90
35603;DHT22;21725;50.836;4.368;2022-10-15T03:43:36;17.00;99.90
35603;DHT22;21725;50.836;4.368;2022-10-15T03:46:12;17.10;99.90
35603;DHT22;21725;50.836;4.368;2022-10-15T03:48:38;17.20;99.90
35603;DHT22;21725;50.836;4.368;2022-10-15T03:51:11;17.30;99.90
35603;DHT22;21725;50.836;4.368;2022-10-15T03:53:47;17.40;99.90
35603;DHT22;21725;50.836;4.368;2022-10-15T03:56:21;17.40;99.90
35603;DHT22;21725;50.836;4.368;2022-10-15T03:58:59;17.40;99.90
35603;DHT22;21725;50.836;4.368;2022-10-15T04:01:33;17.40;99.90
35603;DHT22;21725;50.836;4.368;2022-10-15T04:04:06;17.20;99.90
35603;DHT22;21725;50.836;4.368;2022-10-15T04:06:37;17.20;99.90
35603;DHT22;21725;50.836;4.368;2022-10-15T04:09:08;17.00;99.90
35603;DHT22;21725;50.836;4.368;2022-10-15T04:11:43;16.90;99.90
35603;DHT22;21725;50.836;4.368;2022-10-15T04:14:16;16.70;99.90
35603;DHT22;21725;50.836;4.368;2022-10-15T04:16:49;16.70;99.90
35603;DHT22;21725;50.836;4.368;2022-10-15T04:19:15;16.50;99.90
35603;DHT22;21725;50.836;4.368;2022-10-15T04:21:44;16.60;99.90
35603;DHT22;21725;50.836;4.368;2022-10-15T04:24:10;16.30;99.90
35603;DHT22;21725;50.836;4.368;2022-10-15T04:26:42;16.30;99.90
35603;DHT22;21725;50.836;4.368;2022-10-15T04:29:21;16.40;99.90
35603;DHT22;21725;50.836;4.368;2022-10-15T04:31:50;16.50;99.90
35603;DHT22;21725;50.836;4.368;2022-10-15T04:34:33;16.30;99.90
35603;DHT22;21725;50.836;4.368;2022-10-15T04:37:09;16.30;99.90
35603;DHT22;21725;50.836;4.368;2022-10-15T04:39:48;16.50;99.90
35603;DHT22;21725;50.836;4.368;2022-10-15T04:42:17;16.60;99.90
35603;DHT22;21725;50.836;4.368;2022-10-15T04:44:52;16.60;99.90
35603;DHT22;21725;50.836;4.368;2022-10-15T04:47:38;16.60;99.90
35603;DHT22;21725;50.836;4.368;2022-10-15T04:50:13;16.50;99.90
35603;DHT22;21725;50.836;4.368;2022-10-15T04:52:45;16.60;99.90
35603;DHT22;21725;50.836;4.368;2022-10-15T04:55:21;16.60;99.90
35603;DHT22;21725;50.836;4.368;2022-10-15T04:57:53;16.60;99.90
35603;DHT22;21725;50.836;4.368;2022-10-15T05:00:27;16.80;99.90
35603;DHT22;21725;50.836;4.368;2022-10-15T05:03:11;16.80;99.90
35603;DHT22;21725;50.836;4.368;2022-10-15T05:05:47;16.70;99.90
35603;DHT22;21725;50.836;4.368;2022-10-15T05:08:15;16.80;99.90
35603;DHT22;21725;50.836;4.368;2022-10-15T05:14:13;16.70;99.90
35603;DHT22;21725;50.836;4.368;2022-10-15T05:16:39;16.80;99.90
35603;DHT22;21725;50.836;4.368;2022-10-15T05:19:14;16.80;99.90
35603;DHT22;21725;50.836;4.368;2022-10-15T05:21:55;16.90;99.90
35603;DHT22;21725;50.836;4.368;2022-10-15T05:24:23;16.80;99.90
35603;DHT22;21725;50.836;4.368;2022-10-15T05:30:00;16.80;99.90
35603;DHT22;21725;50.836;4.368;2022-10-15T05:32:42;16.90;99.90
35603;DHT22;21725;50.836;4.368;2022-10-15T05:35:18;17.00;99.90
35603;DHT22;21725;50.836;4.368;2022-10-15T05:37:53;17.00;99.90
35603;DHT22;21725;50.836;4.368;2022-10-15T05:40:55;16.90;99.90
35603;DHT22;21725;50.836;4.368;2022-10-15T05:43:25;17.00;99.90
35603;DHT22;21725;50.836;4.368;2022-10-15T05:46:06;17.00;99.90
35603;DHT22;21725;50.836;4.368;2022-10-15T05:48:42;17.00;99.90
35603;DHT22;21725;50.836;4.368;2022-10-15T05:51:35;17.00;99.90
35603;DHT22;21725;50.836;4.368;2022-10-15T05:54:04;17.00;99.90
35603;DHT22;21725;50.836;4.368;2022-10-15T05:56:35;17.00;99.90
35603;DHT22;21725;50.836;4.368;2022-10-15T05:59:12;17.00;99.90
35603;DHT22;21725;50.836;4.368;2022-10-15T06:01:43;16.90;99.90
35603;DHT22;21725;50.836;4.368;2022-10-15T06:04:26;16.90;99.90
35603;DHT22;21725;50.836;4.368;2022-10-15T06:07:22;16.90;99.90
35603;DHT22;21725;50.836;4.368;2022-10-15T06:09:53;17.00;99.90
35603;DHT22;21725;50.836;4.368;2022-10-15T06:12:35;17.00;99.90
35603;DHT22;21725;50.836;4.368;2022-10-15T06:15:08;17.00;99.90
35603;DHT22;21725;50.836;4.368;2022-10-15T06:17:45;16.90;99.90
35603;DHT22;21725;50.836;4.368;2022-10-15T06:20:23;16.90;99.90
35603;DHT22;21725;50.836;4.368;2022-10-15T06:22:58;16.90;99.90
35603;DHT22;21725;50.836;4.368;2022-10-15T06:26:00;16.90;99.90
35603;DHT22;21725;50.836;4.368;2022-10-15T06:28:28;17.00;99.90
35603;DHT22;21725;50.836;4.368;2022-10-15T06:31:04;16.80;99.90
35603;DHT22;21725;50.836;4.368;2022-10-15T06:33:37;16.90;99.90
35603;DHT22;21725;50.836;4.368;2022-10-15T06:36:10;17.00;99.90
35603;DHT22;21725;50.836;4.368;2022-10-15T06:38:40;17.10;99.90
35603;DHT22;21725;50.836;4.368;2022-10-15T06:41:10;17.00;99.90
35603;DHT22;21725;50.836;4.368;2022-10-15T06:43:42;17.20;99.90
35603;DHT22;21725;50.836;4.368;2022-10-15T06:49:13;17.30;99.90
35603;DHT22;21725;50.836;4.368;2022-10-15T06:51:46;17.30;99.90
35603;DHT22;21725;50.836;4.368;2022-10-15T06:54:25;17.30;99.90
35603;DHT22;21725;50.836;4.368;2022-10-15T06:56:56;17.20;99.90
35603;DHT22;21725;50.836;4.368;2022-10-15T06:59:24;17.30;99.90
35603;DHT22;21725;50.836;4.368;2022-10-15T07:02:00;17.10;99.90
35603;DHT22;21725;50.836;4.368;2022-10-15T07:04:41;17.20;99.90
35603;DHT22;21725;50.836;4.368;2022-10-15T07:07:27;17.20;99.90
35603;DHT22;21725;50.836;4.368;2022-10-15T07:09:55;17.20;99.90
35603;DHT22;21725;50.836;4.368;2022-10-15T07:12:32;17.30;99.90
35603;DHT22;21725;50.836;4.368;2022-10-15T07:15:01;17.30;99.90
35603;DHT22;21725;50.836;4.368;2022-10-15T07:17:27;17.30;99.90
35603;DHT22;21725;50.836;4.368;2022-10-15T07:20:17;17.30;99.90
35603;DHT22;21725;50.836;4.368;2022-10-15T07:22:57;17.40;99.90
35603;DHT22;21725;50.836;4.368;2022-10-15T07:25:36;17.40;99.90
35603;DHT22;21725;50.836;4.368;2022-10-15T07:28:04;17.40;99.90
35603;DHT22;21725;50.836;4.368;2022-10-15T07:30:40;17.40;99.90
35603;DHT22;21725;50.836;4.368;2022-10-15T07:33:18;17.30;99.90
35603;DHT22;21725;50.836;4.368;2022-10-15T07:35:54;17.50;99.90
35603;DHT22;21725;50.836;4.368;2022-10-15T07:38:22;17.50;99.90
35603;DHT22;21725;50.836;4.368;2022-10-15T07:40:57;17.60;99.90
35603;DHT22;21725;50.836;4.368;2022-10-15T07:43:36;18.00;99.90
35603;DHT22;21725;50.836;4.368;2022-10-15T07:46:03;17.60;99.90
35603;DHT22;21725;50.836;4.368;2022-10-15T07:48:42;17.50;99.90
35603;DHT22;21725;50.836;4.368;2022-10-15T07:51:11;17.40;99.90
35603;DHT22;21725;50.836;4.368;2022-10-15T07:53:40;17.40;99.90
35603;DHT22;21725;50.836;4.368;2022-10-15T07:56:26;17.30;99.90
35603;DHT22;21725;50.836;4.368;2022-10-15T07:59:07;17.50;99.90
35603;DHT22;21725;50.836;4.368;2022-10-15T08:01:44;17.60;99.90
35603;DHT22;21725;50.836;4.368;2022-10-15T08:04:43;17.60;99.90
35603;DHT22;21725;50.836;4.368;2022-10-15T08:07:13;17.70;99.90
35603;DHT22;21725;50.836;4.368;2022-10-15T08:09:47;17.40;99.90
35603;DHT22;21725;50.836;4.368;2022-10-15T08:12:23;17.70;99.90
35603;DHT22;21725;50.836;4.368;2022-10-15T08:17:48;17.80;99.90
35603;DHT22;21725;50.836;4.368;2022-10-15T08:20:26;17.60;99.90
35603;DHT22;21725;50.836;4.368;2022-10-15T08:23:02;17.60;99.90
35603;DHT22;21725;50.836;4.368;2022-10-15T08:25:36;17.50;99.90
35603;DHT22;21725;50.836;4.368;2022-10-15T08:28:13;17.40;99.90
35603;DHT22;21725;50.836;4.368;2022-10-15T08:30:40;17.50;99.90
35603;DHT22;21725;50.836;4.368;2022-10-15T08:33:20;17.50;99.90
35603;DHT22;21725;50.836;4.368;2022-10-15T08:35:51;17.70;99.90
35603;DHT22;21725;50.836;4.368;2022-10-15T08:38:20;17.80;99.90
35603;DHT22;21725;50.836;4.368;2022-10-15T08:44:00;18.10;99.90
35603;DHT22;21725;50.836;4.368;2022-10-15T08:50:09;18.40;99.90
35603;DHT22;21725;50.836;4.368;2022-10-15T08:52:51;18.50;99.90
35603;DHT22;21725;50.836;4.368;2022-10-15T08:55:25;18.50;99.90
35603;DHT22;21725;50.836;4.368;2022-10-15T09:00:39;18.50;99.90
35603;DHT22;21725;50.836;4.368;2022-10-15T09:06:37;18.50;99.90
35603;DHT22;21725;50.836;4.368;2022-10-15T09:15:12;19.00;99.90
35603;DHT22;21725;50.836;4.368;2022-10-15T09:17:48;19.20;99.90
35603;DHT22;21725;50.836;4.368;2022-10-15T09:20:29;19.20;99.90
35603;DHT22;21725;50.836;4.368;2022-10-15T09:22:55;19.10;99.90
35603;DHT22;21725;50.836;4.368;2022-10-15T09:25:48;19.20;99.90
35603;DHT22;21725;50.836;4.368;2022-10-15T09:28:46;19.30;99.90
35603;DHT22;21725;50.836;4.368;2022-10-15T09:31:24;19.20;99.90
35603;DHT22;21725;50.836;4.368;2022-10-15T09:34:06;19.20;99.90
35603;DHT22;21725;50.836;4.368;2022-10-15T09:36:52;19.50;99.90
35603;DHT22;21725;50.836;4.368;2022-10-15T09:39:37;19.70;99.90
35603;DHT22;21725;50.836;4.368;2022-10-15T09:48:21;19.90;99.90
35603;DHT22;21725;50.836;4.368;2022-10-15T09:57:26;20.10;99.90
35603;DHT22;21725;50.836;4.368;2022-10-15T10:00:07;20.10;99.90
35603;DHT22;21725;50.836;4.368;2022-10-15T10:02:48;20.20;99.90
35603;DHT22;21725;50.836;4.368;2022-10-15T10:05:34;20.20;99.90
35603;DHT22;21725;50.836;4.368;2022-10-15T10:08:24;20.20;99.90
35603;DHT22;21725;50.836;4.368;2022-10-15T10:11:05;20.30;99.90
35603;DHT22;21725;50.836;4.368;2022-10-15T10:14:09;20.30;99.90
35603;DHT22;21725;50.836;4.368;2022-10-15T10:17:19;20.10;99.90
35603;DHT22;21725;50.836;4.368;2022-10-15T10:22:46;20.20;99.90
35603;DHT22;21725;50.836;4.368;2022-10-15T10:25:38;20.60;99.90
35603;DHT22;21725;50.836;4.368;2022-10-15T10:28:33;20.60;99.90
35603;DHT22;21725;50.836;4.368;2022-10-15T10:31:32;20.80;99.90
35603;DHT22;21725;50.836;4.368;2022-10-15T10:34:25;20.70;99.90
35603;DHT22;21725;50.836;4.368;2022-10-15T10:37:12;20.90;99.90
35603;DHT22;21725;50.836;4.368;2022-10-15T10:40:18;20.60;99.90
35603;DHT22;21725;50.836;4.368;2022-10-15T10:42:49;20.90;99.90
35603;DHT22;21725;50.836;4.368;2022-10-15T10:46:08;21.00;99.90
35603;DHT22;21725;50.836;4.368;2022-10-15T10:49:06;21.10;99.90
35603;DHT22;21725;50.836;4.368;2022-10-15T10:51:56;21.20;99.90
35603;DHT22;21725;50.836;4.368;2022-10-15T10:54:25;21.20;99.90
35603;DHT22;21725;50.836;4.368;2022-10-15T10:56:59;21.30;99.90
35603;DHT22;21725;50.836;4.368;2022-10-15T10:59:51;21.30;99.90
35603;DHT22;21725;50.836;4.368;2022-10-15T11:02:32;21.40;99.90
35603;DHT22;21725;50.836;4.368;2022-10-15T11:05:10;21.50;99.90
35603;DHT22;21725;50.836;4.368;2022-10-15T11:08:00;21.60;99.90
35603;DHT22;21725;50.836;4.368;2022-10-15T11:11:09;21.50;99.90
35603;DHT22;21725;50.836;4.368;2022-10-15T11:14:06;21.40;99.90
35603;DHT22;21725;50.836;4.368;2022-10-15T11:19:45;21.30;99.90
35603;DHT22;21725;50.836;4.368;2022-10-15T11:22:52;21.30;99.90
35603;DHT22;21725;50.836;4.368;2022-10-15T11:28:15;21.20;99.90
35603;DHT22;21725;50.836;4.368;2022-10-15T11:31:47;21.20;99.90
35603;DHT22;21725;50.836;4.368;2022-10-15T11:42:29;21.40;99.90
35603;DHT22;21725;50.836;4.368;2022-10-15T11:45:21;21.60;99.90
35603;DHT22;21725;50.836;4.368;2022-10-15T11:48:31;21.70;99.90
35603;DHT22;21725;50.836;4.368;2022-10-15T11:56:49;21.70;99.90
35603;DHT22;21725;50.836;4.368;2022-10-15T11:59:26;21.70;99.90
35603;DHT22;21725;50.836;4.368;2022-10-15T12:02:12;21.60;99.90
35603;DHT22;21725;50.836;4.368;2022-10-15T12:04:47;21.60;99.90
35603;DHT22;21725;50.836;4.368;2022-10-15T12:07:33;21.50;99.90
35603;DHT22;21725;50.836;4.368;2022-10-15T12:15:44;21.40;99.90
35603;DHT22;21725;50.836;4.368;2022-10-15T12:21:30;21.10;99.90
35603;DHT22;21725;50.836;4.368;2022-10-15T12:24:00;21.10;99.90
35603;DHT22;21725;50.836;4.368;2022-10-15T12:26:33;21.00;99.90
35603;DHT22;21725;50.836;4.368;2022-10-15T12:29:05;21.00;99.90
35603;DHT22;21725;50.836;4.368;2022-10-15T12:32:28;20.60;99.90
35603;DHT22;21725;50.836;4.368;2022-10-15T12:34:43;20.40;99.90
35603;DHT22;21725;50.836;4.368;2022-10-15T12:37:18;20.30;99.90
35603;DHT22;21725;50.836;4.368;2022-10-15T12:40:02;20.60;99.90
35603;DHT22;21725;50.836;4.368;2022-10-15T12:42:39;20.70;99.90
35603;DHT22;21725;50.836;4.368;2022-10-15T12:45:47;20.80;99.90
35603;DHT22;21725;50.836;4.368;2022-10-15T12:48:33;21.00;99.90
35603;DHT22;21725;50.836;4.368;2022-10-15T12:53:52;21.20;99.90
35603;DHT22;21725;50.836;4.368;2022-10-15T12:56:37;20.90;99.90
35603;DHT22;21725;50.836;4.368;2022-10-15T12:59:29;20.60;99.90
35603;DHT22;21725;50.836;4.368;2022-10-15T13:02:01;20.40;99.90
35603;DHT22;21725;50.836;4.368;2022-10-15T13:04:38;20.40;99.90
35603;DHT22;21725;50.836;4.368;2022-10-15T13:10:51;20.40;99.90
35603;DHT22;21725;50.836;4.368;2022-10-15T13:13:20;20.60;99.90
35603;DHT22;21725;50.836;4.368;2022-10-15T13:16:10;20.60;99.90
35603;DHT22;21725;50.836;4.368;2022-10-15T13:18:48;20.50;99.90
35603;DHT22;21725;50.836;4.368;2022-10-15T13:21:16;20.70;99.90
35603;DHT22;21725;50.836;4.368;2022-10-15T13:24:01;20.80;99.90
35603;DHT22;21725;50.836;4.368;2022-10-15T13:26:35;20.80;99.90
35603;DHT22;21725;50.836;4.368;2022-10-15T13:29:01;20.80;99.90
35603;DHT22;21725;50.836;4.368;2022-10-15T13:31:34;20.80;99.90
35603;DHT22;21725;50.836;4.368;2022-10-15T13:34:08;20.90;99.90
35603;DHT22;21725;50.836;4.368;2022-10-15T13:36:38;20.90;99.90
35603;DHT22;21725;50.836;4.368;2022-10-15T13:39:19;20.90;99.90
35603;DHT22;21725;50.836;4.368;2022-10-15T13:41:50;20.70;99.90
35603;DHT22;21725;50.836;4.368;2022-10-15T13:44:23;20.70;99.90
35603;DHT22;21725;50.836;4.368;2022-10-15T13:46:49;20.80;99.90
35603;DHT22;21725;50.836;4.368;2022-10-15T13:49:18;20.70;99.90
35603;DHT22;21725;50.836;4.368;2022-10-15T13:51:49;20.90;99.90
35603;DHT22;21725;50.836;4.368;2022-10-15T13:54:32;20.80;99.90
35603;DHT22;21725;50.836;4.368;2022-10-15T13:57:13;20.70;99.90
35603;DHT22;21725;50.836;4.368;2022-10-15T13:59:45;20.70;99.90
35603;DHT22;21725;50.836;4.368;2022-10-15T14:02:18;20.60;99.90
35603;DHT22;21725;50.836;4.368;2022-10-15T14:04:45;20.70;99.90
35603;DHT22;21725;50.836;4.368;2022-10-15T14:07:26;20.90;99.90
35603;DHT22;21725;50.836;4.368;2022-10-15T14:10:09;21.00;99.90
35603;DHT22;21725;50.836;4.368;2022-10-15T14:12:36;21.00;99.90
35603;DHT22;21725;50.836;4.368;2022-10-15T14:15:41;21.10;99.80
35603;DHT22;21725;50.836;4.368;2022-10-15T14:18:07;21.20;99.60
35603;DHT22;21725;50.836;4.368;2022-10-15T14:20:46;21.10;99.50
35603;DHT22;21725;50.836;4.368;2022-10-15T14:23:23;20.90;99.30
35603;DHT22;21725;50.836;4.368;2022-10-15T14:25:59;20.90;99.00
35603;DHT22;21725;50.836;4.368;2022-10-15T14:28:28;20.90;98.50
35603;DHT22;21725;50.836;4.368;2022-10-15T14:30:58;20.80;98.60
35603;DHT22;21725;50.836;4.368;2022-10-15T14:36:26;20.90;97.30
35603;DHT22;21725;50.836;4.368;2022-10-15T14:42:00;20.90;95.90
35603;DHT22;21725;50.836;4.368;2022-10-15T14:44:43;20.80;95.80
35603;DHT22;21725;50.836;4.368;2022-10-15T14:47:20;21.00;95.30
35603;DHT22;21725;50.836;4.368;2022-10-15T14:49:57;21.00;95.40
35603;DHT22;21725;50.836;4.368;2022-10-15T14:52:25;21.00;95.20
35603;DHT22;21725;50.836;4.368;2022-10-15T14:57:53;20.80;95.50
35603;DHT22;21725;50.836;4.368;2022-10-15T15:03:25;20.70;95.40
35603;DHT22;21725;50.836;4.368;2022-10-15T15:05:56;20.50;96.30
35603;DHT22;21725;50.836;4.368;2022-10-15T15:08:24;20.60;95.60
35603;DHT22;21725;50.836;4.368;2022-10-15T15:10:58;20.70;95.80
35603;DHT22;21725;50.836;4.368;2022-10-15T15:13:31;20.50;95.70
35603;DHT22;21725;50.836;4.368;2022-10-15T15:16:12;20.50;95.70
35603;DHT22;21725;50.836;4.368;2022-10-15T15:18:41;20.50;95.90
35603;DHT22;21725;50.836;4.368;2022-10-15T15:21:19;20.40;96.10
35603;DHT22;21725;50.836;4.368;2022-10-15T15:23:46;20.40;96.20
35603;DHT22;21725;50.836;4.368;2022-10-15T15:26:18;20.40;96.60
35603;DHT22;21725;50.836;4.368;2022-10-15T15:28:47;20.20;96.80
35603;DHT22;21725;50.836;4.368;2022-10-15T15:31:16;20.30;97.00
35603;DHT22;21725;50.836;4.368;2022-10-15T15:33:42;20.30;97.20
35603;DHT22;21725;50.836;4.368;2022-10-15T15:36:15;20.20;97.50
35603;DHT22;21725;50.836;4.368;2022-10-15T15:38:51;20.20;97.50
35603;DHT22;21725;50.836;4.368;2022-10-15T15:41:23;20.30;97.70
35603;DHT22;21725;50.836;4.368;2022-10-15T15:44:08;20.40;97.70
35603;DHT22;21725;50.836;4.368;2022-10-15T15:46:36;20.20;98.10
35603;DHT22;21725;50.836;4.368;2022-10-15T15:49:11;20.20;98.20
35603;DHT22;21725;50.836;4.368;2022-10-15T15:51:40;20.30;97.90
35603;DHT22;21725;50.836;4.368;2022-10-15T15:54:08;20.10;98.30
35603;DHT22;21725;50.836;4.368;2022-10-15T15:56:36;20.20;98.10
35603;DHT22;21725;50.836;4.368;2022-10-15T15:59:08;20.20;98.10
35603;DHT22;21725;50.836;4.368;2022-10-15T16:01:34;20.10;98.10
35603;DHT22;21725;50.836;4.368;2022-10-15T16:04:08;20.00;98.30
35603;DHT22;21725;50.836;4.368;2022-10-15T16:06:40;19.90;98.60
35603;DHT22;21725;50.836;4.368;2022-10-15T16:09:07;19.90;98.70
35603;DHT22;21725;50.836;4.368;2022-10-15T16:11:38;19.90;98.60
35603;DHT22;21725;50.836;4.368;2022-10-15T16:14:04;19.80;99.00
35603;DHT22;21725;50.836;4.368;2022-10-15T16:16:31;19.80;98.80
35603;DHT22;21725;50.836;4.368;2022-10-15T16:18:56;19.80;98.90
35603;DHT22;21725;50.836;4.368;2022-10-15T16:21:23;19.80;98.90
35603;DHT22;21725;50.836;4.368;2022-10-15T16:23:50;19.70;98.80
35603;DHT22;21725;50.836;4.368;2022-10-15T16:26:16;19.60;99.20
35603;DHT22;21725;50.836;4.368;2022-10-15T16:28:42;19.30;99.70
35603;DHT22;21725;50.836;4.368;2022-10-15T16:31:23;19.30;99.90
35603;DHT22;21725;50.836;4.368;2022-10-15T16:33:48;19.30;99.70
35603;DHT22;21725;50.836;4.368;2022-10-15T16:36:15;19.40;99.60
35603;DHT22;21725;50.836;4.368;2022-10-15T16:38:42;19.50;99.50
35603;DHT22;21725;50.836;4.368;2022-10-15T16:41:09;19.60;99.30
35603;DHT22;21725;50.836;4.368;2022-10-15T16:43:35;19.60;99.30
35603;DHT22;21725;50.836;4.368;2022-10-15T16:46:02;19.60;99.20
35603;DHT22;21725;50.836;4.368;2022-10-15T16:48:29;19.60;99.30
35603;DHT22;21725;50.836;4.368;2022-10-15T16:51:09;19.50;99.30
35603;DHT22;21725;50.836;4.368;2022-10-15T16:53:36;19.40;99.50
35603;DHT22;21725;50.836;4.368;2022-10-15T16:56:07;19.20;99.90
35603;DHT22;21725;50.836;4.368;2022-10-15T16:58:34;19.20;99.90
35603;DHT22;21725;50.836;4.368;2022-10-15T17:01:01;19.20;99.60
35603;DHT22;21725;50.836;4.368;2022-10-15T17:03:27;19.20;99.70
35603;DHT22;21725;50.836;4.368;2022-10-15T17:05:57;19.30;99.90
35603;DHT22;21725;50.836;4.368;2022-10-15T17:08:27;19.00;99.90
35603;DHT22;21725;50.836;4.368;2022-10-15T17:10:54;19.00;99.90
35603;DHT22;21725;50.836;4.368;2022-10-15T17:13:20;19.00;99.90
35603;DHT22;21725;50.836;4.368;2022-10-15T17:15:46;19.10;99.90
35603;DHT22;21725;50.836;4.368;2022-10-15T17:18:13;19.10;99.90
35603;DHT22;21725;50.836;4.368;2022-10-15T17:20:46;19.00;99.90
35603;DHT22;21725;50.836;4.368;2022-10-15T17:23:13;19.00;99.80
35603;DHT22;21725;50.836;4.368;2022-10-15T17:25:39;18.70;99.90
35603;DHT22;21725;50.836;4.368;2022-10-15T17:28:05;18.80;99.90
35603;DHT22;21725;50.836;4.368;2022-10-15T17:30:34;19.00;99.90
35603;DHT22;21725;50.836;4.368;2022-10-15T17:33:01;18.90;99.70
35603;DHT22;21725;50.836;4.368;2022-10-15T17:35:27;18.90;99.80
35603;DHT22;21725;50.836;4.368;2022-10-15T17:37:53;18.80;99.80
35603;DHT22;21725;50.836;4.368;2022-10-15T17:40:19;18.70;99.90
35603;DHT22;21725;50.836;4.368;2022-10-15T17:42:44;18.80;99.70
35603;DHT22;21725;50.836;4.368;2022-10-15T17:45:10;18.70;99.80
35603;DHT22;21725;50.836;4.368;2022-10-15T17:47:39;18.80;99.50
35603;DHT22;21725;50.836;4.368;2022-10-15T17:50:05;18.70;99.60
35603;DHT22;21725;50.836;4.368;2022-10-15T17:52:31;18.60;99.80
35603;DHT22;21725;50.836;4.368;2022-10-15T17:54:58;18.50;99.80
35603;DHT22;21725;50.836;4.368;2022-10-15T17:57:24;18.80;99.80
35603;DHT22;21725;50.836;4.368;2022-10-15T17:59:49;18.60;99.90
35603;DHT22;21725;50.836;4.368;2022-10-15T18:02:15;18.70;99.70
35603;DHT22;21725;50.836;4.368;2022-10-15T18:04:41;18.80;99.50
35603;DHT22;21725;50.836;4.368;2022-10-15T18:07:07;18.80;99.70
35603;DHT22;21725;50.836;4.368;2022-10-15T18:09:33;18.70;99.50
35603;DHT22;21725;50.836;4.368;2022-10-15T18:11:59;18.70;99.50
35603;DHT22;21725;50.836;4.368;2022-10-15T18:14:26;18.70;99.50
35603;DHT22;21725;50.836;4.368;2022-10-15T18:16:52;18.60;99.50
35603;DHT22;21725;50.836;4.368;2022-10-15T18:19:18;18.70;99.40
35603;DHT22;21725;50.836;4.368;2022-10-15T18:21:43;18.80;99.10
35603;DHT22;21725;50.836;4.368;2022-10-15T18:24:09;18.90;99.10
35603;DHT22;21725;50.836;4.368;2022-10-15T18:26:35;18.80;99.00
35603;DHT22;21725;50.836;4.368;2022-10-15T18:29:01;18.70;99.10
35603;DHT22;21725;50.836;4.368;2022-10-15T18:31:27;18.80;99.00
35603;DHT22;21725;50.836;4.368;2022-10-15T18:33:54;18.90;98.80